Terminal Aerodrome Forecast
Issued by NWS Greer, SC

Home | Current Version | Previous Version | Text Only | Print | Product List | Glossary On
Versions: 1 2 3 4 5 6 7 8 9 10 11 12 13 14 15 16 17 18 19 20 21 22 23 24 25 26 27 28 29 30 31 32 33 34 35 36 37 38 39 40 41 42 43 44 45
000
FTUS42 KGSP 260539
TAFAVL
TAF
KAVL 260539Z 2606/2706 16005KT P6SM -SHRA SCT010 OVC020
     FM260800 16004KT 4SM BR VCSH SCT007 OVC012
      TEMPO 2608/2612 2SM BR OVC007
     FM261400 18004KT P6SM VCSH SCT010 BKN020
     FM261600 18005KT P6SM -SHRA BKN030 PROB30 2618/2624 4SM TSRA
      OVC020CB
     FM270000 18006KT P6SM -SHRA VCTS BKN050CB=

USA.gov is the U.S. government's official web portal to all federal, state and local government web resources and services.